createdAt,value
2022-10-09T00:01:33.610Z,100693.22
2022-10-09T00:04:02.692Z,100694.59
2022-10-09T00:06:33.450Z,100701.47
2022-10-09T00:09:03.115Z,100700.31
2022-10-09T00:11:33.503Z,100706.34
2022-10-09T00:14:02.043Z,100696.19
2022-10-09T00:16:32.352Z,100704.50
2022-10-09T00:19:01.134Z,100704.22
2022-10-09T00:21:31.227Z,100710.50
2022-10-09T00:24:01.315Z,100713.06
2022-10-09T00:26:31.275Z,100712.06
2022-10-09T00:29:00.427Z,100708.56
2022-10-09T00:31:29.271Z,100708.72
2022-10-09T00:33:59.425Z,100711.09
2022-10-09T00:36:28.511Z,100709.69
2022-10-09T00:38:57.471Z,100684.88
2022-10-09T00:41:27.853Z,100697.38
2022-10-09T00:43:58.335Z,100698.38
2022-10-09T00:46:35.015Z,100702.69
2022-10-09T00:49:14.772Z,100705.59
2022-10-09T00:51:45.227Z,100717.50
2022-10-09T00:54:16.574Z,100707.63
2022-10-09T00:56:45.476Z,100717.78
2022-10-09T00:59:14.783Z,100718.06
2022-10-09T01:01:43.788Z,100714.00
2022-10-09T01:04:15.649Z,100725.16
2022-10-09T01:06:56.106Z,100731.00
2022-10-09T01:09:25.130Z,100730.19
2022-10-09T01:11:58.670Z,100734.19
2022-10-09T01:14:31.543Z,100726.84
2022-10-09T01:17:04.200Z,100732.25
2022-10-09T01:19:47.128Z,100738.50
2022-10-09T01:22:26.104Z,100734.31
2022-10-09T01:24:56.591Z,100740.94
2022-10-09T01:27:26.534Z,100748.19
2022-10-09T01:29:58.182Z,100754.59
2022-10-09T01:32:29.802Z,100751.75
2022-10-09T01:34:59.154Z,100759.25
2022-10-09T01:37:29.341Z,100753.13
2022-10-09T01:39:58.337Z,100754.59
2022-10-09T01:42:29.357Z,100755.94
2022-10-09T01:44:58.114Z,100762.88
2022-10-09T01:47:27.194Z,100763.50
2022-10-09T01:49:59.434Z,100762.22
2022-10-09T01:52:41.442Z,100766.22
2022-10-09T01:55:21.510Z,100771.56
2022-10-09T01:57:53.978Z,100774.19
2022-10-09T02:00:23.353Z,100772.50
2022-10-09T02:02:53.922Z,100779.84
2022-10-09T02:05:24.238Z,100783.72
2022-10-09T02:07:53.204Z,100782.16
2022-10-09T02:10:22.608Z,100788.25
2022-10-09T02:12:55.992Z,100782.06
2022-10-09T02:15:27.489Z,100790.81
2022-10-09T02:18:01.657Z,100787.38
2022-10-09T02:20:33.218Z,100790.50
2022-10-09T02:23:03.928Z,100797.81
2022-10-09T02:25:31.963Z,100796.78
2022-10-09T02:28:02.357Z,100797.38
2022-10-09T02:30:37.019Z,100806.13
2022-10-09T02:33:06.436Z,100802.91
2022-10-09T02:35:35.217Z,100812.38
2022-10-09T02:38:03.847Z,100818.88
2022-10-09T02:40:32.159Z,100822.22
2022-10-09T02:43:02.280Z,100821.88
2022-10-09T02:45:30.972Z,100824.41
2022-10-09T02:47:59.668Z,100826.69
2022-10-09T02:50:28.295Z,100817.22
2022-10-09T02:52:57.028Z,100821.28
2022-10-09T02:55:25.338Z,100832.69
2022-10-09T02:57:54.088Z,100832.69
2022-10-09T03:00:24.287Z,100838.19
2022-10-09T03:02:53.256Z,100845.53
2022-10-09T03:05:22.136Z,100853.09
2022-10-09T03:07:53.275Z,100846.59
2022-10-09T03:10:22.508Z,100851.41
2022-10-09T03:12:51.670Z,100857.53
2022-10-09T03:15:20.526Z,100850.19
2022-10-09T03:17:50.710Z,100858.13
2022-10-09T03:20:19.468Z,100871.56
2022-10-09T03:22:48.069Z,100868.56
2022-10-09T03:25:17.266Z,100869.41
2022-10-09T03:27:46.272Z,100873.59
2022-10-09T03:30:15.488Z,100868.66
2022-10-09T03:32:44.208Z,100870.59
2022-10-09T03:35:14.319Z,100872.25
2022-10-09T03:37:42.652Z,100872.88
2022-10-09T03:40:12.079Z,100872.03
2022-10-09T03:42:40.869Z,100866.50
2022-10-09T03:45:10.719Z,100868.44
2022-10-09T03:47:39.405Z,100870.94
2022-10-09T03:50:09.073Z,100873.00
2022-10-09T03:52:38.744Z,100883.56
2022-10-09T03:55:08.280Z,100884.19
2022-10-09T03:57:36.959Z,100899.28
2022-10-09T04:00:06.511Z,100891.59
2022-10-09T04:02:36.120Z,100901.81
2022-10-09T04:05:05.322Z,100897.75
2022-10-09T04:07:34.575Z,100907.22
2022-10-09T04:10:05.190Z,100906.84
2022-10-09T04:12:33.598Z,100903.50
2022-10-09T04:15:02.296Z,100910.44
2022-10-09T04:17:31.079Z,100905.66
2022-10-09T04:20:00.780Z,100903.34
2022-10-09T04:22:29.434Z,100900.97
2022-10-09T04:24:58.379Z,100913.56
2022-10-09T04:27:28.521Z,100909.94
2022-10-09T04:29:57.355Z,100912.47
2022-10-09T04:32:26.191Z,100917.75
2022-10-09T04:34:54.510Z,100914.03
2022-10-09T04:37:23.121Z,100924.84
2022-10-09T04:39:51.827Z,100929.53
2022-10-09T04:42:20.524Z,100928.72
2022-10-09T04:44:50.660Z,100934.22
2022-10-09T04:47:19.376Z,100928.19
2022-10-09T04:49:47.997Z,100940.72
2022-10-09T04:52:16.645Z,100936.59
2022-10-09T04:54:45.332Z,100942.50
2022-10-09T04:57:14.183Z,100962.06
2022-10-09T04:59:42.885Z,100952.25
2022-10-09T05:02:13.008Z,100953.66
2022-10-09T05:04:41.442Z,100949.69
2022-10-09T05:07:10.156Z,100955.72
2022-10-09T05:09:38.850Z,100956.78
2022-10-09T05:12:07.634Z,100962.41
2022-10-09T05:14:37.504Z,100971.19
2022-10-09T05:17:14.132Z,100968.31
2022-10-09T05:19:44.614Z,100985.84
2022-10-09T05:22:13.243Z,100988.88
2022-10-09T05:24:42.042Z,100986.56
2022-10-09T05:27:10.696Z,100994.72
2022-10-09T05:29:39.473Z,100998.81
2022-10-09T05:32:08.651Z,101001.81
2022-10-09T05:34:37.311Z,101001.47
2022-10-09T05:37:07.712Z,101005.31
2022-10-09T05:39:38.395Z,101009.94
2022-10-09T05:42:07.358Z,101011.06
2022-10-09T05:44:36.106Z,101020.28
2022-10-09T05:47:05.005Z,101010.44
2022-10-09T05:49:33.394Z,101017.19
2022-10-09T05:52:02.226Z,101024.72
2022-10-09T05:54:32.355Z,101025.47
2022-10-09T05:57:01.067Z,101033.63
2022-10-09T05:59:31.611Z,101039.28
2022-10-09T06:02:00.929Z,101035.22
2022-10-09T06:04:29.551Z,101048.03
2022-10-09T06:06:58.471Z,101052.59
2022-10-09T06:09:27.937Z,101049.28
2022-10-09T06:11:58.061Z,101053.03
2022-10-09T06:14:26.807Z,101053.16
2022-10-09T06:16:55.413Z,101060.81
2022-10-09T06:19:24.256Z,101058.63
2022-10-09T06:21:52.958Z,101065.50
2022-10-09T06:24:28.299Z,101067.56
2022-10-09T06:27:01.386Z,101072.38
2022-10-09T06:29:30.752Z,101071.28
2022-10-09T06:31:59.339Z,101074.41
2022-10-09T06:34:27.834Z,101078.50
2022-10-09T06:36:56.537Z,101079.88
2022-10-09T06:39:26.513Z,101096.63
2022-10-09T06:41:55.100Z,101094.22
2022-10-09T06:44:44.580Z,101100.72
2022-10-09T06:47:13.257Z,101106.97
2022-10-09T06:49:42.683Z,101104.22
2022-10-09T06:52:11.530Z,101113.22
2022-10-09T06:54:40.422Z,101107.13
2022-10-09T06:57:09.171Z,101116.34
2022-10-09T06:59:38.058Z,101117.91
2022-10-09T07:02:08.287Z,101128.25
2022-10-09T07:04:36.618Z,101132.00
2022-10-09T07:07:05.311Z,101130.31
2022-10-09T07:09:34.072Z,101137.75
2022-10-09T07:12:02.737Z,101141.13
2022-10-09T07:14:31.609Z,101148.28
2022-10-09T07:17:00.353Z,101137.13
2022-10-09T07:19:30.121Z,101141.94
2022-10-09T07:21:58.862Z,101142.19
2022-10-09T07:24:27.599Z,101150.28
2022-10-09T07:26:57.521Z,101147.13
2022-10-09T07:29:26.133Z,101157.94
2022-10-09T07:31:54.460Z,101159.88
2022-10-09T07:34:23.413Z,101151.69
2022-10-09T07:36:53.611Z,101162.66
2022-10-09T07:39:22.399Z,101161.06
2022-10-09T07:41:52.116Z,101161.06
2022-10-09T07:44:21.003Z,101161.41
2022-10-09T07:46:51.120Z,101166.72
2022-10-09T07:49:20.030Z,101165.63
2022-10-09T07:51:48.825Z,101167.66
2022-10-09T07:54:19.230Z,101166.78
2022-10-09T07:56:47.710Z,101173.53
2022-10-09T07:59:17.764Z,101174.72
2022-10-09T08:01:46.222Z,101178.69
2022-10-09T08:04:14.967Z,101174.16
2022-10-09T08:06:44.206Z,101183.97
2022-10-09T08:09:12.808Z,101190.03
2022-10-09T08:11:42.890Z,101190.63
2022-10-09T08:14:18.226Z,101194.69
2022-10-09T08:16:47.638Z,101203.97
2022-10-09T08:19:16.626Z,101211.09
2022-10-09T08:21:45.273Z,101211.69
2022-10-09T08:24:14.031Z,101211.56
2022-10-09T08:26:47.940Z,101218.06
2022-10-09T08:29:18.681Z,101215.06
2022-10-09T08:31:47.035Z,101221.91
2022-10-09T08:34:15.827Z,101217.44
2022-10-09T08:36:44.818Z,101228.88
2022-10-09T08:39:13.583Z,101227.28
2022-10-09T08:41:46.825Z,101217.81
2022-10-09T08:44:19.844Z,101236.56
2022-10-09T08:46:57.948Z,101231.97
2022-10-09T08:49:31.921Z,101227.16
2022-10-09T08:52:03.445Z,101227.41
2022-10-09T08:54:35.955Z,101245.22
2022-10-09T08:57:11.855Z,101246.03
2022-10-09T08:59:40.730Z,101239.53
2022-10-09T09:02:24.813Z,101242.00
2022-10-09T09:05:01.184Z,101244.38
2022-10-09T09:07:35.912Z,101248.53
2022-10-09T09:10:08.013Z,101249.00
2022-10-09T09:12:47.841Z,101241.38
2022-10-09T09:15:31.676Z,101246.47
2022-10-09T09:18:08.325Z,101247.03
2022-10-09T09:20:44.589Z,101250.41
2022-10-09T09:23:16.928Z,101249.50
2022-10-09T09:25:46.944Z,101253.81
2022-10-09T09:28:19.074Z,101261.38
2022-10-09T09:30:51.961Z,101261.81
2022-10-09T09:33:23.820Z,101261.72
2022-10-09T09:35:59.167Z,101263.91
2022-10-09T09:38:28.075Z,101268.84
2022-10-09T09:40:56.368Z,101267.88
2022-10-09T09:43:27.669Z,101258.38
2022-10-09T09:45:57.322Z,101266.28
2022-10-09T09:48:34.152Z,101275.66
2022-10-09T09:51:26.980Z,101271.84
2022-10-09T09:53:54.875Z,101277.97
2022-10-09T09:56:53.269Z,101277.94
2022-10-09T09:59:35.519Z,101270.31
2022-10-09T10:02:10.284Z,101277.25
2022-10-09T10:04:43.168Z,101271.84
2022-10-09T10:07:12.008Z,101279.22
2022-10-09T10:09:40.743Z,101282.25
2022-10-09T10:12:17.970Z,101287.09
2022-10-09T10:14:52.191Z,101288.53
2022-10-09T10:17:28.513Z,101291.38
2022-10-09T10:19:57.079Z,101293.25
2022-10-09T10:22:28.174Z,101301.47
2022-10-09T10:24:58.454Z,101293.81
2022-10-09T10:27:31.630Z,101291.63
2022-10-09T10:30:04.186Z,101304.94
2022-10-09T10:32:35.997Z,101301.91
2022-10-09T10:35:10.423Z,101302.56
2022-10-09T10:37:44.338Z,101299.91
2022-10-09T10:40:16.898Z,101305.69
2022-10-09T10:42:57.355Z,101317.06
2022-10-09T10:45:34.700Z,101319.97
2022-10-09T10:48:04.709Z,101312.16
2022-10-09T10:50:39.808Z,101317.06
2022-10-09T10:53:17.309Z,101325.78
2022-10-09T10:55:53.249Z,101329.91
2022-10-09T10:58:27.793Z,101332.06
2022-10-09T11:01:13.990Z,101337.38
2022-10-09T11:03:57.962Z,101333.00
2022-10-09T11:06:30.533Z,101337.59
2022-10-09T11:09:06.075Z,101328.78
2022-10-09T11:11:40.325Z,101336.63
2022-10-09T11:14:24.646Z,101330.44
2022-10-09T11:17:02.617Z,101323.63
2022-10-09T11:19:45.560Z,101322.28
2022-10-09T11:22:26.235Z,101322.63
2022-10-09T11:25:09.337Z,101313.28
2022-10-09T11:27:43.998Z,101323.75
2022-10-09T11:30:14.204Z,101307.88
2022-10-09T11:32:58.779Z,101318.19
2022-10-09T11:35:30.583Z,101312.09
2022-10-09T11:38:01.769Z,101310.25
2022-10-09T11:40:34.018Z,101310.66
2022-10-09T11:43:10.382Z,101310.59
2022-10-09T11:45:48.050Z,101313.56
2022-10-09T11:48:23.842Z,101312.88
2022-10-09T11:50:56.104Z,101304.06
2022-10-09T11:53:26.536Z,101303.75
2022-10-09T11:56:03.871Z,101308.66
2022-10-09T11:58:32.948Z,101298.72
2022-10-09T12:01:13.856Z,101308.38
2022-10-09T12:03:44.068Z,101307.13
2022-10-09T12:06:15.303Z,101303.34
2022-10-09T12:08:46.003Z,101304.47
2022-10-09T12:11:16.983Z,101317.06
2022-10-09T12:13:49.252Z,101310.59
2022-10-09T12:16:39.293Z,101306.69
2022-10-09T12:19:18.524Z,101305.56
2022-10-09T12:21:59.988Z,101315.66
2022-10-09T12:24:32.028Z,101309.75
2022-10-09T12:27:03.319Z,101310.59
2022-10-09T12:29:36.126Z,101299.56
2022-10-09T12:32:08.121Z,101295.13
2022-10-09T12:34:39.850Z,101290.91
2022-10-09T12:37:13.675Z,101290.69
2022-10-09T12:39:42.638Z,101295.81
2022-10-09T12:42:18.559Z,101300.94
2022-10-09T12:44:48.355Z,101300.28
2022-10-09T12:47:20.677Z,101297.59
2022-10-09T12:50:02.368Z,101299.84
2022-10-09T12:52:33.114Z,101305.19
2022-10-09T12:55:03.402Z,101296.22
2022-10-09T12:57:34.000Z,101286.88
2022-10-09T13:00:02.786Z,101296.53
2022-10-09T13:02:31.861Z,101302.63
2022-10-09T13:05:02.996Z,101295.97
2022-10-09T13:07:32.687Z,101301.19
2022-10-09T13:10:07.271Z,101300.97
2022-10-09T13:12:36.679Z,101295.44
2022-10-09T13:15:07.621Z,101300.44
2022-10-09T13:17:38.522Z,101299.38
2022-10-09T13:23:03.553Z,101296.13
2022-10-09T13:25:35.085Z,101304.72
2022-10-09T13:28:04.028Z,101306.72
2022-10-09T13:30:33.025Z,101307.78
2022-10-09T13:33:01.806Z,101297.13
2022-10-09T13:35:30.828Z,101301.31
2022-10-09T13:37:59.659Z,101298.88
2022-10-09T13:40:29.597Z,101292.44
2022-10-09T13:42:58.725Z,101293.75
2022-10-09T13:45:27.659Z,101291.09
2022-10-09T13:47:56.356Z,101283.78
2022-10-09T13:50:25.645Z,101304.19
2022-10-09T13:52:53.896Z,101292.97
2022-10-09T13:55:22.713Z,101297.13
2022-10-09T13:57:54.014Z,101293.06
2022-10-09T14:00:22.865Z,101289.31
2022-10-09T14:02:51.551Z,101299.59
2022-10-09T14:05:21.646Z,101292.22
2022-10-09T14:07:50.301Z,101295.06
2022-10-09T14:10:23.547Z,101301.44
2022-10-09T14:12:53.919Z,101298.31
2022-10-09T14:15:22.638Z,101293.63
2022-10-09T14:17:51.851Z,101303.34
2022-10-09T14:20:20.902Z,101293.97
2022-10-09T14:22:49.489Z,101289.19
2022-10-09T14:25:18.501Z,101291.78
2022-10-09T14:27:47.293Z,101287.78
2022-10-09T14:30:17.701Z,101287.03
2022-10-09T14:32:46.713Z,101281.78
2022-10-09T14:35:20.553Z,101285.25
2022-10-09T14:37:49.863Z,101282.53
2022-10-09T14:40:18.839Z,101293.75
2022-10-09T14:42:48.012Z,101294.75
2022-10-09T14:45:18.358Z,101299.13
2022-10-09T14:47:47.282Z,101302.91
2022-10-09T14:50:16.144Z,101294.22
2022-10-09T14:52:44.875Z,101299.50
2022-10-09T14:55:13.789Z,101301.75
2022-10-09T14:57:43.745Z,101307.44
2022-10-09T15:00:14.034Z,101300.84
2022-10-09T15:02:44.079Z,101310.25
2022-10-09T15:05:12.755Z,101297.56
2022-10-09T15:07:41.294Z,101311.94
2022-10-09T15:10:10.613Z,101301.22
2022-10-09T15:12:39.386Z,101312.94
2022-10-09T15:15:09.406Z,101310.78
2022-10-09T15:17:38.402Z,101313.13
2022-10-09T15:20:09.898Z,101313.06
2022-10-09T15:22:38.477Z,101316.22
2022-10-09T15:25:08.448Z,101309.72
2022-10-09T15:27:37.240Z,101309.34
2022-10-09T15:30:07.165Z,101310.03
2022-10-09T15:32:35.950Z,101313.84
2022-10-09T15:35:05.120Z,101303.88
2022-10-09T15:37:35.016Z,101317.72
2022-10-09T15:40:03.674Z,101323.78
2022-10-09T15:42:32.416Z,101326.81
2022-10-09T15:45:01.162Z,101320.31
2022-10-09T15:47:49.858Z,101321.75
2022-10-09T15:50:18.756Z,101324.69
2022-10-09T15:52:48.749Z,101327.81
2022-10-09T15:55:18.718Z,101329.00
2022-10-09T15:58:00.842Z,101336.47
2022-10-09T16:00:32.414Z,101334.44
2022-10-09T16:03:17.592Z,101346.06
2022-10-09T16:06:14.932Z,101350.84
2022-10-09T16:08:46.481Z,101347.72
2022-10-09T16:11:21.729Z,101348.31
2022-10-09T16:13:53.886Z,101355.38
2022-10-09T16:16:24.146Z,101362.09
2022-10-09T16:18:53.306Z,101361.59
2022-10-09T16:21:23.433Z,101361.44
2022-10-09T16:23:58.402Z,101364.75
2022-10-09T16:26:29.050Z,101367.03
2022-10-09T16:28:57.524Z,101364.94
2022-10-09T16:31:28.253Z,101363.25
2022-10-09T16:33:57.537Z,101364.38
2022-10-09T16:36:26.484Z,101369.16
2022-10-09T16:38:57.397Z,101374.63
2022-10-09T16:41:27.146Z,101373.34
2022-10-09T16:43:57.076Z,101370.28
2022-10-09T16:46:27.459Z,101374.75
2022-10-09T16:48:57.524Z,101380.03
2022-10-09T16:51:28.535Z,101374.97
2022-10-09T16:54:00.105Z,101378.25
2022-10-09T16:56:30.897Z,101379.22
2022-10-09T16:59:01.071Z,101375.09
2022-10-09T17:01:29.946Z,101375.66
2022-10-09T17:04:00.316Z,101379.59
2022-10-09T17:06:29.399Z,101377.03
2022-10-09T17:09:00.536Z,101376.22
2022-10-09T17:11:32.569Z,101384.13
2022-10-09T17:14:01.636Z,101381.28
2022-10-09T17:16:32.848Z,101382.47
2022-10-09T17:19:02.148Z,101381.81
2022-10-09T17:21:34.264Z,101382.03
2022-10-09T17:24:06.050Z,101390.16
2022-10-09T17:26:35.933Z,101390.56
2022-10-09T17:29:05.562Z,101381.22
2022-10-09T17:31:34.211Z,101390.28
2022-10-09T17:34:05.160Z,101397.47
2022-10-09T17:36:35.518Z,101395.44
2022-10-09T17:39:07.233Z,101392.28
2022-10-09T17:41:36.219Z,101389.63
2022-10-09T17:44:05.479Z,101397.88
2022-10-09T17:46:33.878Z,101400.94
2022-10-09T17:49:02.593Z,101396.41
2022-10-09T17:51:33.776Z,101401.88
2022-10-09T17:54:10.958Z,101400.72
2022-10-09T17:56:41.222Z,101402.06
2022-10-09T17:59:10.567Z,101400.88
2022-10-09T18:01:39.443Z,101409.00
2022-10-09T18:04:08.242Z,101405.63
2022-10-09T18:06:37.325Z,101411.19
2022-10-09T18:09:07.544Z,101413.06
2022-10-09T18:11:36.333Z,101419.84
2022-10-09T18:14:05.022Z,101425.66
2022-10-09T18:16:38.021Z,101416.81
2022-10-09T18:19:11.422Z,101419.31
2022-10-09T18:21:41.916Z,101425.34
2022-10-09T18:24:12.809Z,101426.25
2022-10-09T18:26:41.922Z,101426.06
2022-10-09T18:29:10.777Z,101429.09
2022-10-09T18:31:39.184Z,101430.03
2022-10-09T18:34:08.140Z,101427.91
2022-10-09T18:36:36.897Z,101424.28
2022-10-09T18:39:07.701Z,101426.38
2022-10-09T18:41:38.505Z,101434.16
2022-10-09T18:44:09.792Z,101432.03
2022-10-09T18:46:41.128Z,101431.38
2022-10-09T18:49:11.520Z,101435.31
2022-10-09T18:51:41.172Z,101436.06
2022-10-09T18:54:15.678Z,101438.81
2022-10-09T18:56:48.114Z,101433.66
2022-10-09T18:59:20.673Z,101436.84
2022-10-09T19:01:50.153Z,101447.59
2022-10-09T19:04:19.198Z,101441.44
2022-10-09T19:06:49.272Z,101451.25
2022-10-09T19:09:18.049Z,101454.28
2022-10-09T19:11:48.542Z,101454.47
2022-10-09T19:14:17.081Z,101446.84
2022-10-09T19:16:45.506Z,101455.22
2022-10-09T19:19:14.417Z,101458.06
2022-10-09T19:21:44.076Z,101454.84
2022-10-09T19:24:13.437Z,101462.94
2022-10-09T19:26:42.545Z,101465.19
2022-10-09T19:29:12.783Z,101466.13
2022-10-09T19:31:41.078Z,101464.72
2022-10-09T19:34:09.784Z,101467.66
2022-10-09T19:36:38.529Z,101466.88
2022-10-09T19:39:08.134Z,101467.47
2022-10-09T19:41:37.150Z,101460.84
2022-10-09T19:44:05.853Z,101461.03
2022-10-09T19:46:37.725Z,101462.38
2022-10-09T19:49:07.015Z,101466.00
2022-10-09T19:51:36.886Z,101464.22
2022-10-09T19:54:06.739Z,101462.38
2022-10-09T19:56:36.411Z,101468.63
2022-10-09T19:59:08.018Z,101472.91
2022-10-09T20:01:40.420Z,101462.28
2022-10-09T20:04:11.520Z,101469.69
2022-10-09T20:06:41.743Z,101471.75
2022-10-09T20:09:14.406Z,101474.38
2022-10-09T20:11:43.371Z,101471.28
2022-10-09T20:14:12.286Z,101474.84
2022-10-09T20:16:42.140Z,101479.41
2022-10-09T20:19:10.915Z,101472.56
2022-10-09T20:21:39.703Z,101468.50
2022-10-09T20:24:08.902Z,101479.13
2022-10-09T20:26:42.852Z,101482.03
2022-10-09T20:29:12.239Z,101484.84
2022-10-09T20:31:42.602Z,101488.59
2022-10-09T20:34:11.392Z,101490.47
2022-10-09T20:36:40.321Z,101491.22
2022-10-09T20:39:11.879Z,101484.81
2022-10-09T20:41:41.263Z,101488.72
2022-10-09T20:44:10.509Z,101483.28
2022-10-09T20:46:41.484Z,101496.25
2022-10-09T20:49:13.626Z,101488.28
2022-10-09T20:51:42.626Z,101496.25
2022-10-09T20:54:21.310Z,101490.22
2022-10-09T20:56:50.914Z,101480.75
2022-10-09T20:59:19.939Z,101482.94
2022-10-09T21:01:49.856Z,101488.00
2022-10-09T21:04:18.650Z,101491.59
2022-10-09T21:06:47.332Z,101483.88
2022-10-09T21:09:16.206Z,101479.22
2022-10-09T21:11:45.912Z,101479.47
2022-10-09T21:14:14.743Z,101485.66
2022-10-09T21:16:43.094Z,101472.94
2022-10-09T21:19:13.379Z,101478.44
2022-10-09T21:21:42.312Z,101474.09
2022-10-09T21:24:11.003Z,101473.97
2022-10-09T21:26:40.991Z,101476.47
2022-10-09T21:29:12.766Z,101477.06
2022-10-09T21:31:41.084Z,101474.69
2022-10-09T21:34:10.105Z,101475.63
2022-10-09T21:36:56.183Z,101474.25
2022-10-09T21:39:31.060Z,101476.72
2022-10-09T21:41:59.837Z,101478.34
2022-10-09T21:44:28.819Z,101471.78
2022-10-09T21:46:57.752Z,101469.94
2022-10-09T21:49:27.882Z,101472.84
2022-10-09T21:51:58.275Z,101477.50
2022-10-09T21:54:27.199Z,101482.09
2022-10-09T21:56:56.089Z,101491.84
2022-10-09T21:59:24.977Z,101488.63
2022-10-09T22:01:53.771Z,101490.66
2022-10-09T22:04:22.778Z,101490.56
2022-10-09T22:06:51.594Z,101492.63
2022-10-09T22:09:21.929Z,101484.72
2022-10-09T22:11:50.622Z,101479.66
2022-10-09T22:14:19.300Z,101481.34
2022-10-09T22:16:47.676Z,101482.19
2022-10-09T22:19:16.418Z,101486.44
2022-10-09T22:21:45.164Z,101476.75
2022-10-09T22:24:13.874Z,101481.06
2022-10-09T22:26:43.956Z,101484.81
2022-10-09T22:29:12.678Z,101493.94
2022-10-09T22:31:41.162Z,101491.16
2022-10-09T22:34:10.577Z,101495.56
2022-10-09T22:36:39.285Z,101496.69
2022-10-09T22:39:08.903Z,101496.34
2022-10-09T22:41:37.699Z,101496.41
2022-10-09T22:44:09.609Z,101499.91
2022-10-09T22:46:39.348Z,101501.84
2022-10-09T22:49:09.496Z,101502.75
2022-10-09T22:51:38.137Z,101495.16
2022-10-09T22:54:07.171Z,101501.50
2022-10-09T22:56:38.984Z,101502.53
2022-10-09T22:59:10.082Z,101505.22
2022-10-09T23:01:40.307Z,101498.97
2022-10-09T23:04:12.014Z,101494.53
2022-10-09T23:06:41.934Z,101494.28
2022-10-09T23:09:14.315Z,101493.66
2022-10-09T23:11:43.394Z,101490.97
2022-10-09T23:14:14.186Z,101481.22
2022-10-09T23:16:42.454Z,101482.31
2022-10-09T23:19:11.504Z,101485.88
2022-10-09T23:21:42.135Z,101486.72
2022-10-09T23:24:12.718Z,101485.44
2022-10-09T23:26:41.542Z,101487.56
2022-10-09T23:29:18.289Z,101482.38
2022-10-09T23:31:46.847Z,101481.84
2022-10-09T23:34:16.138Z,101481.03
2022-10-09T23:36:45.001Z,101472.63
2022-10-09T23:39:14.168Z,101467.38
2022-10-09T23:41:43.021Z,101473.34
2022-10-09T23:44:11.778Z,101477.72
2022-10-09T23:46:42.001Z,101466.03
2022-10-09T23:49:11.627Z,101464.69
2022-10-09T23:51:40.557Z,101467.47
2022-10-09T23:54:09.963Z,101471.03
2022-10-09T23:56:38.677Z,101464.84
2022-10-09T23:59:09.935Z,101469.25
